createdAt,value
2023-03-26T00:00:48.581Z,99.90
2023-03-26T00:01:50.918Z,99.90
2023-03-26T00:02:52.670Z,99.90
2023-03-26T00:03:55.239Z,99.90
2023-03-26T00:04:57.020Z,99.90
2023-03-26T00:06:16.820Z,99.90
2023-03-26T00:07:18.554Z,99.90
2023-03-26T00:08:20.280Z,99.90
2023-03-26T00:09:22.045Z,99.90
2023-03-26T00:10:25.402Z,99.90
2023-03-26T00:11:28.912Z,99.90
2023-03-26T00:12:30.736Z,99.90
2023-03-26T00:13:33.190Z,99.90
2023-03-26T00:14:35.396Z,99.90
2023-03-26T00:15:37.782Z,99.90
2023-03-26T00:16:43.596Z,99.90
2023-03-26T00:17:48.646Z,99.90
2023-03-26T00:18:51.607Z,99.90
2023-03-26T00:19:53.649Z,99.90
2023-03-26T00:20:56.914Z,99.90
2023-03-26T00:21:58.691Z,99.90
2023-03-26T00:23:03.680Z,99.90
2023-03-26T00:24:09.493Z,99.90
2023-03-26T00:25:11.322Z,99.90
2023-03-26T00:26:13.180Z,99.90
2023-03-26T00:27:14.961Z,99.90
2023-03-26T00:28:21.437Z,99.90
2023-03-26T00:29:24.623Z,99.90
2023-03-26T00:30:26.629Z,99.90
2023-03-26T00:31:28.406Z,99.90
2023-03-26T00:32:30.897Z,99.90
2023-03-26T00:33:33.097Z,99.90
2023-03-26T00:34:35.195Z,99.90
2023-03-26T00:35:40.083Z,99.90
2023-03-26T00:36:42.314Z,99.90
2023-03-26T00:37:46.109Z,99.90
2023-03-26T00:38:48.557Z,99.90
2023-03-26T00:39:50.262Z,99.90
2023-03-26T00:40:52.529Z,99.90
2023-03-26T00:41:54.721Z,99.90
2023-03-26T00:42:56.947Z,99.90
2023-03-26T00:44:00.392Z,99.90
2023-03-26T00:45:02.164Z,99.90
2023-03-26T00:46:04.118Z,99.90
2023-03-26T00:47:06.457Z,99.90
2023-03-26T00:48:08.178Z,99.90
2023-03-26T00:49:11.106Z,99.90
2023-03-26T00:50:15.615Z,99.90
2023-03-26T00:51:18.913Z,99.90
2023-03-26T00:52:21.258Z,99.90
2023-03-26T00:53:23.648Z,99.90
2023-03-26T00:54:25.385Z,99.90
2023-03-26T00:55:27.091Z,99.90
2023-03-26T00:56:28.837Z,99.90
2023-03-26T00:57:35.823Z,99.90
2023-03-26T00:58:38.112Z,99.90
2023-03-26T00:59:41.276Z,99.90
2023-03-26T01:00:48.468Z,99.90
2023-03-26T01:01:51.228Z,99.90
2023-03-26T01:02:55.905Z,99.90
2023-03-26T01:04:18.144Z,99.90
2023-03-26T01:05:35.345Z,99.90
2023-03-26T01:06:41.844Z,99.90
2023-03-26T01:07:44.727Z,99.90
2023-03-26T01:08:51.161Z,99.90
2023-03-26T01:09:52.874Z,99.90
2023-03-26T01:11:02.818Z,99.90
2023-03-26T01:12:07.691Z,99.90
2023-03-26T01:13:10.132Z,99.90
2023-03-26T01:14:27.292Z,99.90
2023-03-26T01:15:29.942Z,99.90
2023-03-26T01:16:50.063Z,99.90
2023-03-26T01:17:52.166Z,99.90
2023-03-26T01:18:54.639Z,99.90
2023-03-26T01:20:32.965Z,99.90
2023-03-26T01:21:35.266Z,99.90
2023-03-26T01:22:37.792Z,99.90
2023-03-26T01:23:48.983Z,99.90
2023-03-26T01:24:56.628Z,99.90
2023-03-26T01:26:10.832Z,99.90
2023-03-26T01:27:17.719Z,99.90
2023-03-26T01:28:20.306Z,99.90
2023-03-26T01:29:54.214Z,99.90
2023-03-26T01:31:06.225Z,99.90
2023-03-26T01:32:23.585Z,99.90
2023-03-26T01:33:45.068Z,99.90
2023-03-26T01:35:08.768Z,99.90
2023-03-26T01:36:32.371Z,99.90
2023-03-26T01:37:36.945Z,99.90
2023-03-26T01:38:48.174Z,99.90
2023-03-26T01:40:25.522Z,99.90
2023-03-26T01:41:46.824Z,99.90
2023-03-26T01:42:58.310Z,99.90
2023-03-26T01:44:33.598Z,99.90
2023-03-26T01:45:39.089Z,99.90
2023-03-26T01:46:41.687Z,99.90
2023-03-26T01:47:45.222Z,99.90
2023-03-26T01:48:48.048Z,99.90
2023-03-26T01:49:49.776Z,99.90
2023-03-26T01:50:56.199Z,99.90
2023-03-26T01:51:58.656Z,99.90
2023-03-26T01:53:01.058Z,99.90
2023-03-26T01:54:05.880Z,99.90
2023-03-26T01:55:11.648Z,99.90
2023-03-26T01:56:35.870Z,99.90
2023-03-26T01:57:49.719Z,99.90
2023-03-26T01:59:35.875Z,99.90
2023-03-26T02:01:06.376Z,99.90
2023-03-26T02:02:29.470Z,99.90
2023-03-26T02:04:00.895Z,99.90
2023-03-26T02:05:20.852Z,99.90
2023-03-26T02:06:25.808Z,99.90
2023-03-26T02:07:45.717Z,99.90
2023-03-26T02:09:01.652Z,99.90
2023-03-26T02:10:11.279Z,99.90
2023-03-26T02:11:16.487Z,99.90
2023-03-26T02:12:21.922Z,99.90
2023-03-26T02:13:24.744Z,99.90
2023-03-26T02:14:30.016Z,99.90
2023-03-26T02:15:32.471Z,99.90
2023-03-26T02:16:34.556Z,99.90
2023-03-26T02:17:40.276Z,99.90
2023-03-26T02:18:45.778Z,99.90
2023-03-26T02:19:48.012Z,99.90
2023-03-26T02:20:53.082Z,99.90
2023-03-26T02:21:59.818Z,99.90
2023-03-26T02:23:01.955Z,99.90
2023-03-26T02:24:04.201Z,99.90
2023-03-26T02:25:08.378Z,99.90
2023-03-26T02:26:11.546Z,99.90
2023-03-26T02:27:13.353Z,99.90
2023-03-26T02:28:16.967Z,99.90
2023-03-26T02:29:20.621Z,99.90
2023-03-26T02:30:26.002Z,99.90
2023-03-26T02:31:27.894Z,99.90
2023-03-26T02:32:29.695Z,99.90
2023-03-26T02:33:32.193Z,99.90
2023-03-26T02:34:34.189Z,99.90
2023-03-26T02:35:35.904Z,99.90
2023-03-26T02:36:37.861Z,99.90
2023-03-26T02:37:40.468Z,99.90
2023-03-26T02:38:42.161Z,99.90
2023-03-26T02:39:44.157Z,99.90
2023-03-26T02:40:45.879Z,99.90
2023-03-26T02:41:47.587Z,99.90
2023-03-26T02:42:49.754Z,99.90
2023-03-26T02:43:51.611Z,99.90
2023-03-26T02:44:53.329Z,99.90
2023-03-26T02:45:55.281Z,99.90
2023-03-26T02:46:57.205Z,99.90
2023-03-26T02:48:01.033Z,99.90
2023-03-26T02:49:02.867Z,99.90
2023-03-26T02:50:04.921Z,99.90
2023-03-26T02:51:07.249Z,99.90
2023-03-26T02:52:09.049Z,99.90
2023-03-26T02:53:11.951Z,99.90
2023-03-26T02:54:13.631Z,99.90
2023-03-26T02:55:15.656Z,99.90
2023-03-26T02:56:17.574Z,99.90
2023-03-26T02:57:20.156Z,99.90
2023-03-26T02:58:22.061Z,99.90
2023-03-26T02:59:23.784Z,99.90
2023-03-26T03:00:25.886Z,99.90
2023-03-26T03:01:30.908Z,99.90
2023-03-26T03:02:32.833Z,99.90
2023-03-26T03:03:36.259Z,99.90
2023-03-26T03:04:38.026Z,99.90
2023-03-26T03:05:43.167Z,99.90
2023-03-26T03:06:45.554Z,99.90
2023-03-26T03:07:47.262Z,99.90
2023-03-26T03:08:49.974Z,99.90
2023-03-26T03:09:51.733Z,99.90
2023-03-26T03:11:02.047Z,99.90
2023-03-26T03:12:03.926Z,99.90
2023-03-26T03:13:07.745Z,99.90
2023-03-26T03:14:09.540Z,99.90
2023-03-26T03:15:11.899Z,99.90
2023-03-26T03:16:14.048Z,99.90
2023-03-26T03:17:15.787Z,99.90
2023-03-26T03:18:17.637Z,99.90
2023-03-26T03:19:19.440Z,99.90
2023-03-26T03:20:22.008Z,99.90
2023-03-26T03:21:26.273Z,99.90
2023-03-26T03:22:28.019Z,99.90
2023-03-26T03:23:29.789Z,99.90
2023-03-26T03:24:33.810Z,99.90
2023-03-26T03:25:36.104Z,99.90
2023-03-26T03:26:37.943Z,99.90
2023-03-26T03:27:41.227Z,99.90
2023-03-26T03:28:45.065Z,99.90
2023-03-26T03:29:47.032Z,99.90
2023-03-26T03:30:48.991Z,99.90
2023-03-26T03:31:50.884Z,99.90
2023-03-26T03:32:52.632Z,99.90
2023-03-26T03:33:54.317Z,99.90
2023-03-26T03:34:56.499Z,99.90
2023-03-26T03:35:59.395Z,99.90
2023-03-26T03:37:01.122Z,99.90
2023-03-26T03:38:02.823Z,99.90
2023-03-26T03:39:05.208Z,99.90
2023-03-26T03:40:08.228Z,99.90
2023-03-26T03:41:10.349Z,99.90
2023-03-26T03:42:12.144Z,99.90
2023-03-26T03:43:13.888Z,99.90
2023-03-26T03:44:15.897Z,99.90
2023-03-26T03:45:18.235Z,99.90
2023-03-26T03:46:20.023Z,99.90
2023-03-26T03:47:22.936Z,99.90
2023-03-26T03:48:24.814Z,99.90
2023-03-26T03:49:26.648Z,99.90
2023-03-26T03:50:28.471Z,99.90
2023-03-26T03:51:30.351Z,99.90
2023-03-26T03:52:32.156Z,99.90
2023-03-26T03:53:37.182Z,99.90
2023-03-26T03:54:39.150Z,99.90
2023-03-26T03:55:42.010Z,99.90
2023-03-26T03:56:45.771Z,99.90
2023-03-26T03:57:47.619Z,99.90
2023-03-26T03:58:49.707Z,99.90
2023-03-26T03:59:58.273Z,99.90
2023-03-26T04:01:00.948Z,99.90
2023-03-26T04:02:02.782Z,99.90
2023-03-26T04:03:06.462Z,99.90
2023-03-26T04:04:08.878Z,99.90
2023-03-26T04:05:11.922Z,99.90
2023-03-26T04:06:13.815Z,99.90
2023-03-26T04:07:15.875Z,99.90
2023-03-26T04:08:17.879Z,99.90
2023-03-26T04:09:19.683Z,99.90
2023-03-26T04:10:21.425Z,99.90
2023-03-26T04:11:23.465Z,99.90
2023-03-26T04:12:26.090Z,99.90
2023-03-26T04:13:27.936Z,99.90
2023-03-26T04:14:29.677Z,99.90
2023-03-26T04:15:31.389Z,99.90
2023-03-26T04:16:33.262Z,99.90
2023-03-26T04:17:42.355Z,99.90
2023-03-26T04:18:46.371Z,99.90
2023-03-26T04:19:50.357Z,99.90
2023-03-26T04:20:52.160Z,99.90
2023-03-26T04:21:54.514Z,99.90
2023-03-26T04:22:56.334Z,99.90
2023-03-26T04:23:58.134Z,99.90
2023-03-26T04:25:02.381Z,99.90
2023-03-26T04:26:07.270Z,99.90
2023-03-26T04:27:16.523Z,99.90
2023-03-26T04:28:28.771Z,99.90
2023-03-26T04:29:42.779Z,99.90
2023-03-26T04:30:44.987Z,99.90
2023-03-26T04:31:47.132Z,99.90
2023-03-26T04:32:49.018Z,99.90
2023-03-26T04:33:55.345Z,99.90
2023-03-26T04:35:00.760Z,99.90
2023-03-26T04:36:03.220Z,99.90
2023-03-26T04:37:05.226Z,99.90
2023-03-26T04:38:07.221Z,99.90
2023-03-26T04:39:11.703Z,99.90
2023-03-26T04:40:22.030Z,99.90
2023-03-26T04:41:26.313Z,99.90
2023-03-26T04:42:28.739Z,99.90
2023-03-26T04:43:31.214Z,99.90
2023-03-26T04:44:34.938Z,99.90
2023-03-26T04:45:36.770Z,99.90
2023-03-26T04:46:38.528Z,99.90
2023-03-26T04:47:40.427Z,99.90
2023-03-26T04:48:42.191Z,99.90
2023-03-26T04:49:45.453Z,99.90
2023-03-26T04:50:47.584Z,99.90
2023-03-26T04:51:49.388Z,99.90
2023-03-26T04:52:53.923Z,99.90
2023-03-26T04:53:58.423Z,99.90
2023-03-26T04:55:00.811Z,99.90
2023-03-26T04:56:30.735Z,99.90
2023-03-26T04:57:37.753Z,99.90
2023-03-26T04:58:39.851Z,99.90
2023-03-26T04:59:42.996Z,99.90
2023-03-26T05:00:44.765Z,99.90
2023-03-26T05:01:46.504Z,99.90
2023-03-26T05:02:50.439Z,99.90
2023-03-26T05:03:53.205Z,99.90
2023-03-26T05:04:57.109Z,99.90
2023-03-26T05:05:59.831Z,99.90
2023-03-26T05:07:02.243Z,99.90
2023-03-26T05:08:04.248Z,99.90
2023-03-26T05:09:05.942Z,99.90
2023-03-26T05:10:08.150Z,99.90
2023-03-26T05:11:11.675Z,99.90
2023-03-26T05:12:13.458Z,99.90
2023-03-26T05:13:15.937Z,99.90
2023-03-26T05:14:18.097Z,99.90
2023-03-26T05:15:19.905Z,99.90
2023-03-26T05:16:22.468Z,99.90
2023-03-26T05:17:25.446Z,99.90
2023-03-26T05:18:27.163Z,99.90
2023-03-26T05:19:28.883Z,99.90
2023-03-26T05:20:31.219Z,99.90
2023-03-26T05:21:33.084Z,99.90
2023-03-26T05:22:36.639Z,99.90
2023-03-26T05:23:39.625Z,99.90
2023-03-26T05:24:42.356Z,99.90
2023-03-26T05:25:44.191Z,99.90
2023-03-26T05:26:45.991Z,99.90
2023-03-26T05:27:48.256Z,99.90
2023-03-26T05:28:50.362Z,99.90
2023-03-26T05:30:01.035Z,99.90
2023-03-26T05:31:02.859Z,99.90
2023-03-26T05:32:04.747Z,99.90
2023-03-26T05:33:06.653Z,99.90
2023-03-26T05:34:08.514Z,99.90
2023-03-26T05:35:10.804Z,99.90
2023-03-26T05:36:13.744Z,99.90
2023-03-26T05:37:17.259Z,99.90
2023-03-26T05:38:19.006Z,99.90
2023-03-26T05:39:25.706Z,99.90
2023-03-26T05:40:27.459Z,99.90
2023-03-26T05:41:29.221Z,99.90
2023-03-26T05:42:31.584Z,99.90
2023-03-26T05:43:34.167Z,99.90
2023-03-26T05:44:36.150Z,99.90
2023-03-26T05:45:37.816Z,99.90
2023-03-26T05:46:39.569Z,99.90
2023-03-26T05:47:41.548Z,99.90
2023-03-26T05:48:43.292Z,99.90
2023-03-26T05:49:46.218Z,99.90
2023-03-26T05:50:51.395Z,99.90
2023-03-26T05:51:55.453Z,99.90
2023-03-26T05:52:57.281Z,99.90
2023-03-26T05:53:59.153Z,99.90
2023-03-26T05:55:00.894Z,99.90
2023-03-26T05:56:02.777Z,99.90
2023-03-26T05:57:04.534Z,99.90
2023-03-26T05:58:06.469Z,99.90
2023-03-26T05:59:09.179Z,99.90
2023-03-26T06:00:12.118Z,99.90
2023-03-26T06:01:17.171Z,99.90
2023-03-26T06:02:18.930Z,99.90
2023-03-26T06:03:23.032Z,99.90
2023-03-26T06:04:25.031Z,99.90
2023-03-26T06:05:27.143Z,99.90
2023-03-26T06:06:28.944Z,99.90
2023-03-26T06:07:31.244Z,99.90
2023-03-26T06:08:33.492Z,99.90
2023-03-26T06:09:37.688Z,99.90
2023-03-26T06:10:39.517Z,99.90
2023-03-26T06:11:41.850Z,99.90
2023-03-26T06:12:43.653Z,99.90
2023-03-26T06:13:45.863Z,99.90
2023-03-26T06:14:47.635Z,99.90
2023-03-26T06:15:49.376Z,99.90
2023-03-26T06:16:51.484Z,99.90
2023-03-26T06:17:53.257Z,99.90
2023-03-26T06:18:56.926Z,99.90
2023-03-26T06:19:59.303Z,99.90
2023-03-26T06:21:01.226Z,99.90
2023-03-26T06:22:03.532Z,99.90
2023-03-26T06:23:05.261Z,99.90
2023-03-26T06:24:07.362Z,99.90
2023-03-26T06:25:09.981Z,99.90
2023-03-26T06:26:11.702Z,99.90
2023-03-26T06:27:13.451Z,99.90
2023-03-26T06:28:15.923Z,99.90
2023-03-26T06:29:17.705Z,99.90
2023-03-26T06:30:19.524Z,99.90
2023-03-26T06:31:21.317Z,99.90
2023-03-26T06:32:23.305Z,99.90
2023-03-26T06:33:25.237Z,99.90
2023-03-26T06:34:27.037Z,99.90
2023-03-26T06:35:29.972Z,99.90
2023-03-26T06:36:31.787Z,99.90
2023-03-26T06:37:33.597Z,99.90
2023-03-26T06:38:35.440Z,99.90
2023-03-26T06:39:37.188Z,99.90
2023-03-26T06:40:39.125Z,99.90
2023-03-26T06:41:41.317Z,99.90
2023-03-26T06:43:06.934Z,99.90
2023-03-26T06:44:04.845Z,99.90
2023-03-26T06:45:07.322Z,99.90
2023-03-26T06:46:09.500Z,99.90
2023-03-26T06:47:11.191Z,99.90
2023-03-26T06:48:12.930Z,99.90
2023-03-26T06:49:14.648Z,99.90
2023-03-26T06:50:16.532Z,99.90
2023-03-26T06:51:18.254Z,99.90
2023-03-26T06:52:20.226Z,99.90
2023-03-26T06:53:22.614Z,99.90
2023-03-26T06:54:24.298Z,99.90
2023-03-26T06:55:26.356Z,99.90
2023-03-26T06:56:28.071Z,99.90
2023-03-26T06:57:29.827Z,99.90
2023-03-26T06:58:31.585Z,99.90
2023-03-26T06:59:33.330Z,99.90
2023-03-26T07:00:34.995Z,99.90
2023-03-26T07:01:36.885Z,99.90
2023-03-26T07:02:38.883Z,99.90
2023-03-26T07:03:41.074Z,99.90
2023-03-26T07:04:42.822Z,99.90
2023-03-26T07:05:44.512Z,99.90
2023-03-26T07:06:46.417Z,99.90
2023-03-26T07:07:48.270Z,99.90
2023-03-26T07:08:49.958Z,99.90
2023-03-26T07:09:51.787Z,99.90
2023-03-26T07:10:53.635Z,99.90
2023-03-26T07:11:56.289Z,99.90
2023-03-26T07:12:58.004Z,99.90
2023-03-26T07:13:59.707Z,99.90
2023-03-26T07:15:03.323Z,99.90
2023-03-26T07:16:05.907Z,99.90
2023-03-26T07:17:07.611Z,99.90
2023-03-26T07:18:09.680Z,99.90
2023-03-26T07:19:11.429Z,99.90
2023-03-26T07:20:13.251Z,99.90
2023-03-26T07:21:15.526Z,99.90
2023-03-26T07:22:22.830Z,99.90
2023-03-26T07:23:24.848Z,99.90
2023-03-26T07:24:26.972Z,99.90
2023-03-26T07:25:29.006Z,99.90
2023-03-26T07:26:46.246Z,99.90
2023-03-26T07:28:06.875Z,99.90
2023-03-26T07:29:13.680Z,99.90
2023-03-26T07:30:24.368Z,99.90
2023-03-26T07:31:37.350Z,99.90
2023-03-26T07:32:45.315Z,99.90
2023-03-26T07:33:53.904Z,99.90
2023-03-26T07:35:02.172Z,99.90
2023-03-26T07:36:30.723Z,99.90
2023-03-26T07:37:44.134Z,99.90
2023-03-26T07:39:21.293Z,99.90
2023-03-26T07:40:31.959Z,99.90
2023-03-26T07:41:33.660Z,99.90
2023-03-26T07:42:57.614Z,99.90
2023-03-26T07:44:28.000Z,99.90
2023-03-26T07:45:44.732Z,99.90
2023-03-26T07:46:47.834Z,99.90
2023-03-26T07:47:49.839Z,99.90
2023-03-26T07:48:54.098Z,99.90
2023-03-26T07:49:58.053Z,99.90
2023-03-26T07:51:00.357Z,99.90
2023-03-26T07:52:02.317Z,99.90
2023-03-26T07:53:04.264Z,99.90
2023-03-26T07:54:06.667Z,99.90
2023-03-26T07:55:12.429Z,99.90
2023-03-26T07:56:19.756Z,99.90
2023-03-26T07:57:50.396Z,99.90
2023-03-26T07:59:12.514Z,99.90
2023-03-26T08:00:49.141Z,99.90
2023-03-26T08:02:21.568Z,99.90
2023-03-26T08:03:41.493Z,99.90
2023-03-26T08:05:10.511Z,99.90
2023-03-26T08:06:34.638Z,99.90
2023-03-26T08:07:53.245Z,99.90
2023-03-26T08:09:13.154Z,99.90
2023-03-26T08:10:14.978Z,99.90
2023-03-26T08:11:46.847Z,99.90
2023-03-26T08:13:07.160Z,99.90
2023-03-26T08:14:33.712Z,99.90
2023-03-26T08:15:39.300Z,99.90
2023-03-26T08:16:44.856Z,99.90
2023-03-26T08:18:27.201Z,99.90
2023-03-26T08:19:50.897Z,99.90
2023-03-26T08:21:00.370Z,99.90
2023-03-26T08:22:27.348Z,99.90
2023-03-26T08:23:51.047Z,99.90
2023-03-26T08:25:17.911Z,99.90
2023-03-26T08:26:25.532Z,99.90
2023-03-26T08:27:40.397Z,99.90
2023-03-26T08:28:52.620Z,99.90
2023-03-26T08:30:06.034Z,99.90
2023-03-26T08:31:11.212Z,99.90
2023-03-26T08:32:16.281Z,99.90
2023-03-26T08:33:20.600Z,99.90
2023-03-26T08:34:22.406Z,99.90
2023-03-26T08:35:25.502Z,99.90
2023-03-26T08:36:27.871Z,99.90
2023-03-26T08:37:29.591Z,99.90
2023-03-26T08:38:31.318Z,99.90
2023-03-26T08:39:33.247Z,99.90
2023-03-26T08:41:02.520Z,99.90
2023-03-26T08:42:10.181Z,99.90
2023-03-26T08:43:43.037Z,99.90
2023-03-26T08:44:59.884Z,99.90
2023-03-26T08:46:42.020Z,99.90
2023-03-26T08:48:09.136Z,99.90
2023-03-26T08:49:16.988Z,99.90
2023-03-26T08:51:01.546Z,99.90
2023-03-26T08:52:34.904Z,99.90
2023-03-26T08:54:13.800Z,99.90
2023-03-26T08:55:54.012Z,99.90
2023-03-26T08:57:13.840Z,99.90
2023-03-26T08:58:49.705Z,99.90
2023-03-26T09:00:02.496Z,99.90
2023-03-26T09:01:19.997Z,99.90
2023-03-26T09:02:46.577Z,99.90
2023-03-26T09:04:07.441Z,99.90
2023-03-26T09:05:24.752Z,99.90
2023-03-26T09:07:14.472Z,99.90
2023-03-26T09:08:34.928Z,99.90
2023-03-26T09:09:39.767Z,99.90
2023-03-26T09:11:09.374Z,99.90
2023-03-26T09:12:32.429Z,99.90
2023-03-26T09:13:37.237Z,99.90
2023-03-26T09:15:06.401Z,99.90
2023-03-26T09:16:23.761Z,99.90
2023-03-26T09:18:05.855Z,99.90
2023-03-26T09:19:16.427Z,99.90
2023-03-26T09:20:39.908Z,99.90
2023-03-26T09:21:43.071Z,99.90
2023-03-26T09:23:23.895Z,99.90
2023-03-26T09:24:46.804Z,99.90
2023-03-26T09:25:54.509Z,99.90
2023-03-26T09:27:33.980Z,99.90
2023-03-26T09:29:02.663Z,99.90
2023-03-26T09:30:28.648Z,99.90
2023-03-26T09:32:09.677Z,99.90
2023-03-26T09:33:33.263Z,99.90
2023-03-26T09:34:57.009Z,99.90
2023-03-26T09:36:19.444Z,99.90
2023-03-26T09:37:56.157Z,99.90
2023-03-26T09:39:16.931Z,99.90
2023-03-26T09:40:44.067Z,99.90
2023-03-26T09:42:09.085Z,99.90
2023-03-26T09:43:32.898Z,99.90
2023-03-26T09:44:51.526Z,99.90
2023-03-26T09:46:02.566Z,99.90
2023-03-26T09:47:22.493Z,99.90
2023-03-26T09:48:57.419Z,99.90
2023-03-26T09:50:11.492Z,99.90
2023-03-26T09:51:29.907Z,99.90
2023-03-26T09:53:08.925Z,99.90
2023-03-26T09:54:18.062Z,99.90
2023-03-26T09:55:57.617Z,99.90
2023-03-26T09:57:14.623Z,99.90
2023-03-26T09:58:49.652Z,99.90
2023-03-26T10:00:25.850Z,99.90
2023-03-26T10:01:27.532Z,99.90
2023-03-26T10:02:45.949Z,99.90
2023-03-26T10:03:57.524Z,99.90
2023-03-26T10:05:13.900Z,99.90
2023-03-26T10:06:51.973Z,99.90
2023-03-26T10:08:16.599Z,99.90
2023-03-26T10:09:50.948Z,99.90
2023-03-26T10:10:57.721Z,99.90
2023-03-26T10:12:10.287Z,99.90
2023-03-26T10:13:24.420Z,99.90
2023-03-26T10:14:48.286Z,99.90
2023-03-26T10:16:28.160Z,99.90
2023-03-26T10:17:48.660Z,99.90
2023-03-26T10:18:53.350Z,99.90
2023-03-26T10:19:58.166Z,99.90
2023-03-26T10:21:46.231Z,99.90
2023-03-26T10:23:27.875Z,99.90
2023-03-26T10:25:03.426Z,99.90
2023-03-26T10:26:30.161Z,99.90
2023-03-26T10:27:52.841Z,99.90
2023-03-26T10:29:06.489Z,99.90
2023-03-26T10:30:23.162Z,99.90
2023-03-26T10:31:40.578Z,99.90
2023-03-26T10:33:20.197Z,99.90
2023-03-26T10:34:29.141Z,99.90
2023-03-26T10:35:37.468Z,99.90
2023-03-26T10:36:59.621Z,99.90
2023-03-26T10:38:19.513Z,99.90
2023-03-26T10:39:58.212Z,99.90
2023-03-26T10:41:13.609Z,99.90
2023-03-26T10:42:38.529Z,99.90
2023-03-26T10:43:40.410Z,99.90
2023-03-26T10:45:08.915Z,99.90
2023-03-26T10:46:41.575Z,99.90
2023-03-26T10:47:55.014Z,99.90
2023-03-26T10:49:15.618Z,99.90
2023-03-26T10:50:23.106Z,99.80
2023-03-26T10:51:53.479Z,99.90
2023-03-26T10:53:07.161Z,99.90
2023-03-26T10:54:20.167Z,99.90
2023-03-26T10:55:33.713Z,99.90
2023-03-26T10:56:41.911Z,92.10
2023-03-26T10:57:50.467Z,92.50
2023-03-26T10:58:54.138Z,96.70
2023-03-26T11:00:00.833Z,94.70
2023-03-26T11:01:12.277Z,87.40
2023-03-26T11:02:35.230Z,90.50
2023-03-26T11:03:51.834Z,90.10
2023-03-26T11:05:06.394Z,91.10
2023-03-26T11:06:26.084Z,82.20
2023-03-26T11:07:39.548Z,81.80
2023-03-26T11:09:12.256Z,81.50
2023-03-26T11:10:56.284Z,87.50
2023-03-26T11:12:26.553Z,88.70
2023-03-26T11:14:03.643Z,88.90
2023-03-26T11:15:15.714Z,83.30
2023-03-26T11:16:56.397Z,80.80
2023-03-26T11:18:13.480Z,78.00
2023-03-26T11:19:22.293Z,78.90
2023-03-26T11:20:48.641Z,77.30
2023-03-26T11:22:00.403Z,77.70
2023-03-26T11:23:04.992Z,80.60
2023-03-26T11:24:32.834Z,76.00
2023-03-26T11:25:46.160Z,77.70
2023-03-26T11:27:15.256Z,75.30
2023-03-26T11:28:36.480Z,84.00
2023-03-26T11:30:12.964Z,81.90
2023-03-26T11:31:29.098Z,79.30
2023-03-26T11:32:41.941Z,79.10
2023-03-26T11:33:47.631Z,77.50
2023-03-26T11:35:02.855Z,78.90
2023-03-26T11:36:11.331Z,81.50
2023-03-26T11:37:24.971Z,82.20
2023-03-26T11:38:37.737Z,77.60
2023-03-26T11:39:57.682Z,75.90
2023-03-26T11:41:02.833Z,76.20
2023-03-26T11:42:11.166Z,75.40
2023-03-26T11:43:14.723Z,74.90
2023-03-26T11:44:36.309Z,74.70
2023-03-26T11:45:42.588Z,71.20
2023-03-26T11:46:46.709Z,74.10
2023-03-26T11:47:53.014Z,74.90
2023-03-26T11:49:06.739Z,72.40
2023-03-26T11:50:16.474Z,72.90
2023-03-26T11:51:33.519Z,69.90
2023-03-26T11:52:36.024Z,66.70
2023-03-26T11:53:39.313Z,68.60
2023-03-26T11:54:41.215Z,68.90
2023-03-26T11:55:58.023Z,72.80
2023-03-26T11:57:12.858Z,74.10
2023-03-26T11:58:31.211Z,71.70
2023-03-26T11:59:49.079Z,66.40
2023-03-26T12:00:59.093Z,67.00
2023-03-26T12:02:10.017Z,66.10
2023-03-26T12:03:16.204Z,62.90
2023-03-26T12:04:25.078Z,64.50
2023-03-26T12:05:33.448Z,64.80
2023-03-26T12:06:35.351Z,67.10
2023-03-26T12:07:45.774Z,61.40
2023-03-26T12:08:47.633Z,59.40
2023-03-26T12:09:56.502Z,60.40
2023-03-26T12:11:12.267Z,61.80
2023-03-26T12:12:14.014Z,62.40
2023-03-26T12:13:29.947Z,61.20
2023-03-26T12:14:35.336Z,61.00
2023-03-26T12:15:43.711Z,61.60
2023-03-26T12:17:07.407Z,59.90
2023-03-26T12:18:41.115Z,60.90
2023-03-26T12:19:45.162Z,58.30
2023-03-26T12:20:48.188Z,58.20
2023-03-26T12:21:52.366Z,57.80
2023-03-26T12:22:59.447Z,58.20
2023-03-26T12:24:05.104Z,59.20
2023-03-26T12:25:21.215Z,59.90
2023-03-26T12:26:44.900Z,58.70
2023-03-26T12:27:58.969Z,60.90
2023-03-26T12:29:17.242Z,59.60
2023-03-26T12:30:28.014Z,63.10
2023-03-26T12:31:30.350Z,60.00
2023-03-26T12:32:43.339Z,59.00
2023-03-26T12:34:07.661Z,59.90
2023-03-26T12:35:18.734Z,59.20
2023-03-26T12:36:29.140Z,58.40
2023-03-26T12:37:43.281Z,55.80
2023-03-26T12:38:46.052Z,53.00
2023-03-26T12:40:34.245Z,51.70
2023-03-26T12:44:42.500Z,53.10
2023-03-26T12:44:53.115Z,53.90
2023-03-26T12:44:59.378Z,53.90
2023-03-26T12:47:56.174Z,53.00
2023-03-26T12:47:57.366Z,53.10
2023-03-26T12:48:56.921Z,53.00
2023-03-26T12:49:59.357Z,54.40
2023-03-26T12:51:26.318Z,54.10
2023-03-26T12:53:04.800Z,55.90
2023-03-26T12:54:16.706Z,57.90
2023-03-26T12:55:39.317Z,57.90
2023-03-26T12:56:50.166Z,57.30
2023-03-26T12:58:45.176Z,54.90
2023-03-26T12:59:55.801Z,54.00
2023-03-26T13:01:26.410Z,56.60
2023-03-26T13:02:59.187Z,62.00
2023-03-26T13:04:26.393Z,64.90
2023-03-26T13:05:55.923Z,65.50
2023-03-26T13:07:10.792Z,65.50
2023-03-26T13:08:32.651Z,67.90
2023-03-26T13:10:03.632Z,67.30
2023-03-26T13:11:17.510Z,69.60
2023-03-26T13:12:40.419Z,66.30
2023-03-26T13:14:02.059Z,63.70
2023-03-26T13:15:08.957Z,64.00
2023-03-26T13:16:22.308Z,57.00
2023-03-26T13:17:47.061Z,53.30
2023-03-26T13:19:01.685Z,54.20
2023-03-26T13:20:15.619Z,54.80
2023-03-26T13:21:26.718Z,51.60
2023-03-26T13:22:42.066Z,52.80
2023-03-26T13:24:02.332Z,52.10
2023-03-26T13:25:21.988Z,53.00
2023-03-26T13:26:59.910Z,55.50
2023-03-26T13:28:19.978Z,53.60
2023-03-26T13:29:47.046Z,54.50
2023-03-26T13:31:01.942Z,54.10
2023-03-26T13:32:08.678Z,52.40
2023-03-26T13:33:38.211Z,51.10
2023-03-26T13:35:14.742Z,51.80
2023-03-26T13:36:36.156Z,51.80
2023-03-26T13:37:48.949Z,50.70
2023-03-26T13:39:08.058Z,50.00
2023-03-26T13:40:47.550Z,50.50
2023-03-26T13:41:57.161Z,52.00
2023-03-26T13:43:04.801Z,50.60
2023-03-26T13:44:29.092Z,50.70
2023-03-26T13:45:46.239Z,51.00
2023-03-26T13:46:58.088Z,51.00
2023-03-26T13:48:03.921Z,48.80
2023-03-26T13:49:17.225Z,50.00
2023-03-26T13:50:30.367Z,50.70
2023-03-26T13:51:41.044Z,50.80
2023-03-26T13:53:06.484Z,51.30
2023-03-26T13:54:27.586Z,50.50
2023-03-26T13:55:34.168Z,51.40
2023-03-26T13:56:43.263Z,51.60
2023-03-26T13:58:02.220Z,50.90
2023-03-26T13:59:14.451Z,51.50
2023-03-26T14:00:22.757Z,51.40
2023-03-26T14:01:34.814Z,51.50
2023-03-26T14:02:41.243Z,51.50
2023-03-26T14:04:00.966Z,51.60
2023-03-26T14:05:26.428Z,51.20
2023-03-26T14:06:42.336Z,51.30
2023-03-26T14:08:10.692Z,51.30
2023-03-26T14:09:50.798Z,51.40
2023-03-26T14:11:16.260Z,52.00
2023-03-26T14:12:32.102Z,52.20
2023-03-26T14:13:56.958Z,51.40
2023-03-26T14:15:04.277Z,51.70
2023-03-26T14:16:24.054Z,52.70
2023-03-26T14:17:47.469Z,51.30
2023-03-26T14:18:52.347Z,52.40
2023-03-26T14:20:22.124Z,51.50
2023-03-26T14:21:48.968Z,52.30
2023-03-26T14:23:09.394Z,52.60
2023-03-26T14:24:48.083Z,52.50
2023-03-26T14:26:01.170Z,53.20
2023-03-26T14:27:50.763Z,54.10
2023-03-26T14:29:16.840Z,54.20
2023-03-26T14:30:39.598Z,54.70
2023-03-26T14:31:59.722Z,55.90
2023-03-26T14:33:28.076Z,56.40
2023-03-26T14:34:57.944Z,63.70
2023-03-26T14:36:00.723Z,68.20
2023-03-26T14:37:30.682Z,74.70
2023-03-26T14:38:53.854Z,86.50
2023-03-26T14:40:25.191Z,95.40
2023-03-26T14:41:47.967Z,99.90
2023-03-26T14:43:05.135Z,99.90
2023-03-26T14:44:31.081Z,99.90
2023-03-26T14:46:14.184Z,99.90
2023-03-26T14:47:17.869Z,99.90
2023-03-26T14:48:53.625Z,99.90
2023-03-26T14:50:23.406Z,99.90
2023-03-26T14:51:30.938Z,99.90
2023-03-26T14:52:51.404Z,99.90
2023-03-26T14:53:59.021Z,99.90
2023-03-26T14:55:07.535Z,99.90
2023-03-26T14:56:14.389Z,99.90
2023-03-26T14:57:50.829Z,99.90
2023-03-26T14:59:23.226Z,99.90
2023-03-26T15:00:48.337Z,99.90
2023-03-26T15:02:11.375Z,99.90
2023-03-26T15:03:13.350Z,99.90
2023-03-26T15:04:45.680Z,99.90
2023-03-26T15:06:25.290Z,99.90
2023-03-26T15:07:55.714Z,99.90
2023-03-26T15:09:12.209Z,99.90
2023-03-26T15:10:22.946Z,99.90
2023-03-26T15:11:34.825Z,99.90
2023-03-26T15:12:54.927Z,99.90
2023-03-26T15:14:30.528Z,99.90